Time;durP1;ratioP1;P1;durP2;ratioP2;P2;SDS_P1;SDS_P2;PMS_P1;PMS_P2;Temp;Humidity;BMP_temperature;BMP_pressure;BME280_temperature;BME280_humidity;BME280_pressure;Samples;Min_cycle;Max_cycle;Signal;HPM_P1;HPM_P2
2022/09/13 00:00:18;;;;;;;9.13;6.45;;;;;;;17.83;75.15;100931.94;4858902;29;20132;-76
2022/09/13 00:02:43;;;;;;;14.48;6.47;;;;;;;17.80;74.71;100932.06;4843833;29;20029;-76
2022/09/13 00:05:09;;;;;;;12.43;7.20;;;;;;;17.81;75.27;100939.19;4857364;29;20148;-76
2022/09/13 00:07:34;;;;;;;10.63;6.65;;;;;;;17.80;73.85;100937.44;4862037;29;20128;-76
2022/09/13 00:10:00;;;;;;;8.88;6.55;;;;;;;17.79;74.66;100941.03;4864964;29;20042;-76
2022/09/13 00:12:25;;;;;;;12.60;6.93;;;;;;;17.77;74.47;100933.06;4877877;29;20471;-76
2022/09/13 00:14:51;;;;;;;25.35;7.25;;;;;;;17.76;75.33;100941.19;4868145;29;20037;-76
2022/09/13 00:17:17;;;;;;;9.85;6.22;;;;;;;17.76;74.83;100938.53;4866767;29;20051;-76
2022/09/13 00:19:42;;;;;;;9.73;6.57;;;;;;;17.75;75.43;100937.63;4843188;29;20113;-76
2022/09/13 00:22:07;;;;;;;11.65;7.03;;;;;;;17.75;74.83;100932.28;4843298;29;20213;-76
2022/09/13 00:24:33;;;;;;;9.88;7.10;;;;;;;17.74;75.07;100927.88;4874062;29;20556;-76
2022/09/13 00:26:59;;;;;;;7.60;6.63;;;;;;;17.71;75.31;100922.69;4869045;29;20446;-76
2022/09/13 00:29:26;;;;;;;11.45;6.53;;;;;;;17.72;74.46;100924.41;4843877;29;20434;-76
2022/09/13 00:31:52;;;;;;;10.57;6.90;;;;;;;17.72;75.04;100916.38;4878413;29;20029;-76
2022/09/13 00:34:17;;;;;;;9.40;6.40;;;;;;;17.73;75.27;100917.22;4834241;29;20366;-76
2022/09/13 00:36:42;;;;;;;12.35;6.90;;;;;;;17.69;75.39;100899.59;4859528;29;20473;-76
2022/09/13 00:39:09;;;;;;;10.52;6.45;;;;;;;17.68;75.65;100905.88;4873741;29;20294;-76
2022/09/13 00:41:35;;;;;;;11.60;5.95;;;;;;;17.66;75.32;100899.75;4858440;29;20041;-76
2022/09/13 00:44:02;;;;;;;9.32;6.43;;;;;;;17.63;74.92;100896.28;4868377;29;20040;-76
2022/09/13 00:46:43;;;;;;;7.25;5.72;;;;;;;17.66;75.36;100897.09;4863589;29;20599;-76
2022/09/13 00:49:28;;;;;;;14.25;7.38;;;;;;;17.66;74.89;100903.28;4859215;29;20396;-76
2022/09/13 00:52:00;;;;;;;10.82;6.45;;;;;;;17.63;75.58;100890.94;4870283;29;20112;-76
2022/09/13 00:54:30;;;;;;;9.10;6.03;;;;;;;17.62;75.02;100891.00;4858021;29;20060;-76
2022/09/13 00:57:00;;;;;;;12.85;7.10;;;;;;;17.60;75.12;100890.19;4862465;29;20037;-76
2022/09/13 00:59:33;;;;;;;14.40;6.93;;;;;;;17.62;75.61;100891.00;4868293;29;20066;-76
2022/09/13 01:02:00;;;;;;;12.57;6.90;;;;;;;17.60;76.04;100888.38;4873592;29;20037;-76
2022/09/13 01:04:29;;;;;;;9.25;6.15;;;;;;;17.61;75.18;100891.94;4859218;29;20468;-76
2022/09/13 01:06:59;;;;;;;14.00;7.05;;;;;;;17.58;76.22;100889.41;4858164;29;20037;-76
2022/09/13 01:09:26;;;;;;;9.73;6.30;;;;;;;17.57;75.55;100883.19;4869998;29;20042;-76
2022/09/13 01:12:03;;;;;;;10.30;5.57;;;;;;;17.59;74.29;100893.84;4858556;29;20457;-76
2022/09/13 01:14:32;;;;;;;8.85;5.85;;;;;;;17.57;75.05;100887.69;4870257;29;20078;-76
2022/09/13 01:16:58;;;;;;;8.65;6.50;;;;;;;17.59;75.64;100885.81;4857036;29;20056;-76
2022/09/13 01:19:23;;;;;;;9.38;6.05;;;;;;;17.58;75.43;100889.41;4858859;29;20040;-76
2022/09/13 01:22:25;;;;;;;12.57;5.90;;;;;;;17.59;75.35;100889.34;4857965;29;20045;-76
2022/09/13 01:25:07;;;;;;;11.80;6.15;;;;;;;17.55;75.38;100890.44;4872601;29;20121;-76
2022/09/13 01:28:18;;;;;;;9.02;6.07;;;;;;;17.56;74.56;100902.03;4870828;29;20041;-76
2022/09/13 01:31:14;;;;;;;9.07;6.53;;;;;;;17.57;75.23;100899.25;4860018;29;20127;-76
2022/09/13 01:34:12;;;;;;;7.97;5.78;;;;;;;17.53;75.26;100891.44;4856077;29;20034;-76
2022/09/13 01:36:43;;;;;;;21.08;7.20;;;;;;;17.54;75.03;100887.84;4859909;29;20046;-76
2022/09/13 01:39:36;;;;;;;10.48;6.65;;;;;;;17.54;74.88;100888.69;4876226;29;20127;-76
2022/09/13 01:42:21;;;;;;;10.27;6.53;;;;;;;17.52;75.25;100885.22;4853246;29;20046;-76
2022/09/13 01:45:05;;;;;;;8.43;6.13;;;;;;;17.54;75.06;100885.16;4874172;29;20068;-76
2022/09/13 01:47:49;;;;;;;10.57;6.30;;;;;;;17.52;74.63;100879.00;4856926;29;20137;-76
2022/09/13 01:50:33;;;;;;;8.18;5.97;;;;;;;17.48;74.88;100881.00;4857337;29;20493;-76
2022/09/13 01:53:18;;;;;;;7.05;5.60;;;;;;;17.50;74.66;100883.56;4852132;29;20461;-76
2022/09/13 01:55:51;;;;;;;9.32;5.68;;;;;;;17.49;74.70;100885.41;4858960;29;20042;-76
2022/09/13 01:58:35;;;;;;;7.82;5.90;;;;;;;17.48;74.59;100880.09;4868957;29;20034;-76
2022/09/13 02:01:17;;;;;;;10.23;5.38;;;;;;;17.51;74.51;100879.97;4862386;29;20463;-76
2022/09/13 02:03:56;;;;;;;10.30;6.63;;;;;;;17.48;74.90;100878.31;4862230;29;20460;-76
2022/09/13 02:06:44;;;;;;;11.88;5.95;;;;;;;17.49;74.44;100871.16;4862216;29;20049;-76
2022/09/13 02:09:18;;;;;;;8.75;6.03;;;;;;;17.46;74.63;100873.94;4862180;29;20040;-76
2022/09/13 02:11:48;;;;;;;14.05;7.18;;;;;;;17.43;75.61;100866.94;4849345;29;20056;-76
2022/09/13 02:14:26;;;;;;;11.25;6.60;;;;;;;17.44;75.27;100865.16;4861877;29;20041;-76
2022/09/13 02:16:57;;;;;;;8.27;5.90;;;;;;;17.41;75.01;100874.22;4862145;29;20044;-76
2022/09/13 02:19:34;;;;;;;11.15;5.80;;;;;;;17.42;74.98;100873.25;4854121;29;20585;-76
2022/09/13 02:22:04;;;;;;;8.77;6.05;;;;;;;17.44;75.40;100881.22;4856369;29;20114;-76
2022/09/13 02:24:33;;;;;;;8.75;6.18;;;;;;;17.41;76.69;100879.56;4875759;29;20105;-75
2022/09/13 02:27:05;;;;;;;11.95;7.07;;;;;;;17.41;76.49;100885.78;4879180;29;20041;-76
2022/09/13 02:29:35;;;;;;;10.63;6.50;;;;;;;17.41;76.02;100877.75;4868521;29;20073;-76
2022/09/13 02:32:08;;;;;;;8.75;6.00;;;;;;;17.44;75.32;100878.53;4861918;29;20488;-76
2022/09/13 02:34:39;;;;;;;8.38;6.05;;;;;;;17.42;76.18;100873.25;4860140;29;20061;-76
2022/09/13 02:37:06;;;;;;;;;;;;;;;17.53;74.44;100873.59;4879700;29;20032;-76
2022/09/13 02:39:35;;;;;;;8.00;5.88;;;;;;;17.43;76.64;100872.28;4880142;29;19915;-76
2022/09/13 02:42:22;;;;;;;8.65;6.38;;;;;;;17.47;75.11;100867.69;4875823;29;20409;-76
2022/09/13 02:44:54;;;;;;;13.02;6.72;;;;;;;17.44;75.70;100867.84;4871952;29;20174;-76
2022/09/13 02:47:21;;;;;;;10.07;6.90;;;;;;;17.46;76.34;100882.88;4857311;29;20506;-76
2022/09/13 02:50:23;;;;;;;11.60;7.65;;;;;;;17.46;74.90;100888.22;4861469;29;20048;-76
2022/09/13 02:52:54;;;;;;;11.20;7.30;;;;;;;17.46;76.48;100884.66;4854542;29;20114;-76
2022/09/13 02:55:57;;;;;;;10.00;6.95;;;;;;;17.46;75.84;100890.00;4859912;29;20090;-76
2022/09/13 02:58:53;;;;;;;11.27;7.43;;;;;;;17.47;75.98;100895.31;4877420;29;20045;-76
2022/09/13 03:01:20;;;;;;;10.10;6.88;;;;;;;17.42;76.37;100903.56;4880057;29;20108;-76
2022/09/13 03:03:46;;;;;;;8.35;6.95;;;;;;;17.45;75.80;100899.00;4867289;29;20037;-76
2022/09/13 03:06:12;;;;;;;15.95;7.57;;;;;;;17.42;77.41;100902.69;4859245;29;20465;-76
2022/09/13 03:08:37;;;;;;;13.27;7.80;;;;;;;17.40;76.32;100900.09;4870351;29;20473;-76
2022/09/13 03:11:24;;;;;;;10.00;7.53;;;;;;;17.42;76.25;100898.22;4879721;29;20481;-76
2022/09/13 03:14:25;;;;;;;12.05;7.15;;;;;;;17.42;76.23;100892.00;4867003;29;20037;-75
2022/09/13 03:16:54;;;;;;;11.57;7.43;;;;;;;17.40;77.07;100896.56;4849227;29;20124;-76
2022/09/13 03:19:30;;;;;;;10.30;8.05;;;;;;;17.39;77.38;100893.00;4862057;29;20056;-75
2022/09/13 03:22:14;;;;;;;12.63;8.23;;;;;;;17.37;77.88;100886.88;4860901;29;20124;-75
2022/09/13 03:24:59;;;;;;;12.63;7.78;;;;;;;17.35;77.92;100887.88;4860581;29;20053;-76
2022/09/13 03:27:36;;;;;;;11.80;8.48;;;;;;;17.32;78.26;100896.94;4861047;29;20041;-76
2022/09/13 03:30:05;;;;;;;10.68;8.30;;;;;;;17.30;79.08;100905.97;4873565;29;20052;-76
2022/09/13 03:33:11;;;;;;;12.40;7.43;;;;;;;17.29;77.93;100897.09;4861031;29;20394;-76
2022/09/13 03:35:43;;;;;;;10.82;7.88;;;;;;;17.29;78.12;100881.03;4850845;29;20067;-76
2022/09/13 03:38:17;;;;;;;9.23;7.63;;;;;;;17.27;78.68;100882.03;4873779;29;20464;-76
2022/09/13 03:40:50;;;;;;;12.13;8.35;;;;;;;17.26;78.31;100880.28;4860555;29;20037;-76
2022/09/13 03:43:25;;;;;;;11.38;7.70;;;;;;;17.22;78.23;100876.06;4872446;29;20041;-77
2022/09/13 03:46:00;;;;;;;12.77;8.27;;;;;;;17.24;78.11;100874.19;4863330;29;20048;-78
2022/09/13 03:48:27;;;;;;;10.20;7.82;;;;;;;17.20;78.25;100876.13;4879153;29;20044;-78
2022/09/13 03:50:54;;;;;;;11.15;7.85;;;;;;;17.21;77.71;100875.19;4865813;29;20370;-78
2022/09/13 03:53:24;;;;;;;10.57;7.60;;;;;;;17.20;78.15;100876.13;4860024;29;20029;-78
2022/09/13 03:55:51;;;;;;;13.57;7.75;;;;;;;17.16;78.18;100870.06;4863715;29;20041;-78
2022/09/13 03:58:21;;;;;;;10.45;7.32;;;;;;;17.13;78.29;100878.22;4871581;29;20093;-78
2022/09/13 04:00:47;;;;;;;11.27;7.53;;;;;;;17.14;78.31;100876.44;4858994;29;20048;-78
2022/09/13 04:03:13;;;;;;;10.30;7.20;;;;;;;17.13;78.17;100880.03;4872171;29;20037;-78
2022/09/13 04:05:39;;;;;;;10.88;7.18;;;;;;;17.10;78.32;100886.41;4869228;29;20173;-78
2022/09/13 04:08:06;;;;;;;9.68;7.30;;;;;;;17.09;78.26;100899.88;4878741;29;20057;-78
2022/09/13 04:10:32;;;;;;;11.35;7.55;;;;;;;17.07;79.07;100899.94;4878452;29;20112;-78
2022/09/13 04:12:59;;;;;;;10.10;7.00;;;;;;;17.05;78.27;100906.31;4877433;29;20385;-79
2022/09/13 04:15:25;;;;;;;12.25;7.82;;;;;;;17.03;78.68;100906.38;4850329;29;20380;-79
2022/09/13 04:17:51;;;;;;;11.23;7.47;;;;;;;16.98;78.44;100911.94;4864770;29;20041;-78
2022/09/13 04:20:17;;;;;;;12.50;7.68;;;;;;;16.98;79.06;100917.28;4842775;29;20374;-78
2022/09/13 04:22:42;;;;;;;11.63;7.88;;;;;;;16.92;78.84;100922.06;4866847;29;20045;-78
2022/09/13 04:25:08;;;;;;;13.88;7.45;;;;;;;16.93;78.64;100918.44;4858258;29;20041;-79
2022/09/13 04:27:37;;;;;;;13.35;7.82;;;;;;;16.88;78.47;100918.66;4858756;29;20033;-79
2022/09/13 04:30:02;;;;;;;13.00;7.28;;;;;;;16.86;78.71;100915.19;4859461;29;20057;-79
2022/09/13 04:32:28;;;;;;;12.18;7.75;;;;;;;16.82;80.50;100918.09;4866029;29;20032;-79
2022/09/13 04:34:54;;;;;;;9.90;7.20;;;;;;;16.81;79.26;100911.84;4874528;29;20036;-79
2022/09/13 04:37:19;;;;;;;14.35;8.23;;;;;;;16.80;79.96;100910.13;4851388;29;20052;-79
2022/09/13 04:39:45;;;;;;;12.02;8.00;;;;;;;16.81;79.39;100913.66;4866826;29;20073;-79
2022/09/13 04:42:11;;;;;;;14.32;7.65;;;;;;;16.79;80.45;100918.22;4863228;29;20021;-79
2022/09/13 04:44:37;;;;;;;11.20;7.90;;;;;;;16.81;80.25;100929.72;4868801;29;20447;-79
2022/09/13 04:47:02;;;;;;;10.20;7.85;;;;;;;16.81;79.79;100922.56;4856159;29;20041;-79
2022/09/13 04:49:28;;;;;;;11.13;7.43;;;;;;;16.82;79.78;100926.13;4865381;29;20033;-79
2022/09/13 04:51:53;;;;;;;8.00;6.63;;;;;;;16.81;80.07;100927.91;4859826;29;20049;-79
2022/09/13 04:54:19;;;;;;;8.35;7.10;;;;;;;16.82;78.08;100928.78;4857703;29;20030;-79
2022/09/13 04:56:45;;;;;;;12.02;7.60;;;;;;;16.80;79.65;100926.19;4858373;29;20021;-80
2022/09/13 04:59:11;;;;;;;10.32;7.10;;;;;;;16.79;80.44;100931.59;4862451;29;20113;-79
2022/09/13 05:01:37;;;;;;;11.10;7.63;;;;;;;16.82;78.90;100926.13;4878046;29;20045;-79
2022/09/13 05:04:05;;;;;;;12.70;7.63;;;;;;;16.81;79.37;100933.25;4877608;29;20052;-79
2022/09/13 05:06:30;;;;;;;12.60;8.50;;;;;;;16.82;80.90;100929.66;4876965;29;20435;-79
2022/09/13 05:08:56;;;;;;;11.57;8.52;;;;;;;16.83;80.77;100927.84;4845546;29;20037;-77
2022/09/13 05:11:23;;;;;;;12.77;7.80;;;;;;;16.79;80.17;100927.13;4846583;29;20094;-77
2022/09/13 05:13:56;;;;;;;10.85;7.97;;;;;;;16.79;79.89;100927.13;4857908;29;20300;-77
2022/09/13 05:16:31;;;;;;;12.27;7.85;;;;;;;16.81;80.14;100927.91;4861624;29;20043;-77
2022/09/13 05:18:57;;;;;;;10.25;8.05;;;;;;;16.82;80.04;100932.31;4855235;29;20038;-77
2022/09/13 05:21:23;;;;;;;11.65;8.35;;;;;;;16.83;80.72;100936.72;4857784;29;20029;-77
2022/09/13 05:23:50;;;;;;;10.85;8.02;;;;;;;16.85;81.19;100939.34;4868742;29;20081;-77
2022/09/13 05:26:17;;;;;;;11.55;8.20;;;;;;;16.84;80.90;100933.13;4862207;29;20120;-77
2022/09/13 05:28:42;;;;;;;14.43;8.35;;;;;;;16.83;81.14;100930.50;4858952;29;20033;-77
2022/09/13 05:31:19;;;;;;;12.98;7.65;;;;;;;16.85;79.89;100934.84;4858482;29;20104;-77
2022/09/13 05:33:47;;;;;;;11.73;8.48;;;;;;;16.83;81.10;100931.38;4878574;29;20056;-77
2022/09/13 05:36:12;;;;;;;11.95;8.45;;;;;;;16.81;81.48;100932.38;4881250;29;20446;-77
2022/09/13 05:38:38;;;;;;;16.88;8.50;;;;;;;16.83;81.19;100946.56;4874207;29;20030;-77
2022/09/13 05:41:05;;;;;;;12.68;9.07;;;;;;;16.82;81.54;100944.84;4876943;29;20136;-77
2022/09/13 05:43:33;;;;;;;11.40;8.60;;;;;;;16.82;81.61;100936.81;4874878;29;20084;-77
2022/09/13 05:46:04;;;;;;;16.80;8.30;;;;;;;16.84;80.70;100938.47;4866278;29;20033;-77
2022/09/13 05:48:31;;;;;;;16.55;8.52;;;;;;;16.87;81.19;100942.81;4875236;29;20438;-77
2022/09/13 05:51:02;;;;;;;14.30;8.63;;;;;;;16.89;81.53;100938.25;4875545;29;20029;-77
2022/09/13 05:53:28;;;;;;;15.10;8.35;;;;;;;16.89;81.66;100941.81;4856427;29;20046;-77
2022/09/13 05:55:53;;;;;;;10.23;8.05;;;;;;;16.90;81.56;100945.34;4857661;29;20041;-77
2022/09/13 05:58:19;;;;;;;11.57;8.23;;;;;;;16.93;81.22;100940.69;4862488;29;20085;-77
2022/09/13 06:00:44;;;;;;;10.98;8.60;;;;;;;16.95;80.62;100937.97;4864359;29;20504;-77
2022/09/13 06:03:10;;;;;;;13.93;9.25;;;;;;;16.97;80.38;100944.97;4879915;29;20184;-77
2022/09/13 06:05:35;;;;;;;9.88;7.35;;;;;;;17.01;81.85;100942.16;4867741;29;20073;-77
2022/09/13 06:08:01;;;;;;;14.07;8.25;;;;;;;17.05;81.35;100941.94;4875000;29;20033;-77
2022/09/13 06:10:26;;;;;;;10.60;8.68;;;;;;;17.06;82.21;100929.44;4872391;29;20148;-77
2022/09/13 06:12:51;;;;;;;14.65;8.50;;;;;;;17.09;81.36;100935.53;4831765;29;20052;-77
2022/09/13 06:15:17;;;;;;;16.42;9.40;;;;;;;17.14;81.10;100941.50;4860626;29;20030;-77
2022/09/13 06:17:42;;;;;;;13.98;8.73;;;;;;;17.18;81.26;100939.53;4861809;29;20048;-77
2022/09/13 06:20:09;;;;;;;11.05;8.90;;;;;;;17.19;80.80;100943.97;4864825;29;20211;-77
2022/09/13 06:22:34;;;;;;;13.85;9.05;;;;;;;17.20;81.39;100949.22;4860624;29;20033;-77
2022/09/13 06:25:00;;;;;;;9.75;8.38;;;;;;;17.23;80.66;100942.88;4866195;29;20077;-76
2022/09/13 06:27:25;;;;;;;10.13;8.85;;;;;;;17.30;80.38;100940.78;4868123;29;20450;-77
2022/09/13 06:29:51;;;;;;;12.15;9.30;;;;;;;17.34;80.28;100945.91;4852409;29;20044;-77
2022/09/13 06:32:16;;;;;;;13.57;9.23;;;;;;;17.39;81.88;100943.88;4880559;29;20040;-77
2022/09/13 06:34:42;;;;;;;16.90;9.20;;;;;;;17.44;81.64;100935.63;4862657;29;20061;-77
2022/09/13 06:37:07;;;;;;;14.15;9.00;;;;;;;17.49;80.81;100930.03;4867751;29;20132;-77
2022/09/13 06:39:33;;;;;;;15.40;9.02;;;;;;;17.54;80.55;100926.19;4862450;29;20044;-77
2022/09/13 06:41:59;;;;;;;14.93;9.32;;;;;;;17.60;79.88;100927.69;4859923;29;20044;-77
2022/09/13 06:44:37;;;;;;;13.50;9.30;;;;;;;17.63;79.84;100925.75;4869296;29;20056;-77
2022/09/13 06:47:03;;;;;;;11.80;9.10;;;;;;;17.68;79.25;100928.19;4862025;29;20041;-76
2022/09/13 06:49:30;;;;;;;15.48;10.00;;;;;;;17.71;78.82;100932.53;4863610;29;20048;-77
2022/09/13 06:51:56;;;;;;;15.77;10.23;;;;;;;17.76;78.88;100927.81;4868641;29;20509;-77
2022/09/13 06:54:21;;;;;;;13.65;9.70;;;;;;;17.82;79.49;100932.88;4848855;29;20045;-77
2022/09/13 06:56:47;;;;;;;20.00;11.38;;;;;;;17.89;77.83;100922.72;4860688;29;20061;-77
2022/09/13 06:59:13;;;;;;;16.15;10.90;;;;;;;17.95;78.74;100928.66;4877860;29;20433;-77
2022/09/13 07:01:42;;;;;;;20.67;11.93;;;;;;;18.02;78.96;100930.03;4879047;29;20053;-77
2022/09/13 07:04:12;;;;;;;16.25;10.70;;;;;;;18.12;78.68;100927.75;4866731;29;20151;-77
2022/09/13 07:06:40;;;;;;;16.25;11.65;;;;;;;18.22;78.40;100929.03;4856035;29;20029;-77
2022/09/13 07:09:09;;;;;;;22.30;12.13;;;;;;;18.30;77.94;100927.72;4875433;29;20025;-77
2022/09/13 07:11:39;;;;;;;18.00;12.52;;;;;;;18.33;77.91;100928.44;4879673;29;20123;-77
2022/09/13 07:14:05;;;;;;;19.27;11.53;;;;;;;18.41;77.85;100934.25;4858243;29;20033;-77
2022/09/13 07:16:33;;;;;;;17.27;11.10;;;;;;;18.49;78.28;100933.84;4842794;29;20136;-77
2022/09/13 07:19:00;;;;;;;14.02;10.95;;;;;;;18.56;77.69;100929.91;4854930;29;20034;-77
2022/09/13 07:21:27;;;;;;;16.75;12.68;;;;;;;18.65;77.52;100937.47;4855769;29;20092;-77
2022/09/13 07:23:54;;;;;;;19.27;12.75;;;;;;;18.72;77.28;100939.78;4875106;29;20144;-77
2022/09/13 07:26:20;;;;;;;21.88;12.65;;;;;;;18.78;77.20;100936.81;4863884;29;20128;-77
2022/09/13 07:28:48;;;;;;;21.67;14.02;;;;;;;18.82;77.22;100933.91;4849946;29;20074;-77
2022/09/13 07:31:19;;;;;;;17.30;13.95;;;;;;;18.88;77.16;100940.72;4851454;29;20516;-77
2022/09/13 07:33:46;;;;;;;18.45;14.00;;;;;;;18.90;76.97;100931.66;4855698;29;20137;-77
2022/09/13 07:36:12;;;;;;;21.02;13.73;;;;;;;18.98;77.79;100938.41;4843929;29;20033;-77
2022/09/13 07:38:40;;;;;;;20.55;14.27;;;;;;;19.10;76.98;100943.09;4858941;29;20048;-77
2022/09/13 07:41:09;;;;;;;26.30;15.40;;;;;;;19.23;77.42;100952.19;4868590;29;20049;-77
2022/09/13 07:43:35;;;;;;;29.17;16.08;;;;;;;19.30;76.62;100956.25;4879137;29;20250;-77
2022/09/13 07:46:06;;;;;;;24.85;15.50;;;;;;;19.38;77.28;100952.28;4863881;29;20047;-77
2022/09/13 07:48:33;;;;;;;24.00;15.95;;;;;;;19.51;76.64;100955.97;4873491;29;20036;-77
2022/09/13 07:51:04;;;;;;;24.15;17.10;;;;;;;19.54;75.81;100956.69;4873307;29;20045;-77
2022/09/13 07:53:30;;;;;;;22.85;15.80;;;;;;;19.65;76.38;100968.63;4866108;29;20029;-77
2022/09/13 07:56:08;;;;;;;25.98;17.17;;;;;;;19.71;75.97;100963.81;4862474;29;20029;-77
2022/09/13 07:58:35;;;;;;;24.63;15.95;;;;;;;19.82;75.49;100955.09;4860070;29;20042;-77
2022/09/13 08:01:08;;;;;;;25.65;16.75;;;;;;;19.97;75.43;100964.09;4864712;29;20516;-76
2022/09/13 08:03:35;;;;;;;25.13;17.25;;;;;;;20.12;75.19;100963.16;4877456;29;20070;-77
2022/09/13 08:06:02;;;;;;;27.25;18.42;;;;;;;20.23;75.13;100967.91;4875013;29;20108;-77
2022/09/13 08:08:28;;;;;;;23.00;17.48;;;;;;;20.36;75.41;100963.53;4869639;29;20041;-77
2022/09/13 08:10:54;;;;;;;25.05;18.35;;;;;;;20.48;74.36;100963.75;4865643;29;20041;-77
2022/09/13 08:13:20;;;;;;;25.00;18.38;;;;;;;20.63;74.34;100961.97;4871168;29;20029;-77
2022/09/13 08:15:45;;;;;;;27.17;18.23;;;;;;;20.71;74.44;100967.72;4873007;29;20382;-77
2022/09/13 08:18:11;;;;;;;26.13;19.38;;;;;;;20.77;73.63;100972.72;4864914;29;20072;-77
2022/09/13 08:20:38;;;;;;;23.17;18.73;;;;;;;20.84;73.99;100955.22;4859491;29;20041;-77
2022/09/13 08:23:05;;;;;;;26.35;18.42;;;;;;;20.93;73.91;100959.16;4873744;29;20060;-77
2022/09/13 08:25:34;;;;;;;29.00;20.50;;;;;;;20.98;72.95;100965.97;4867433;29;20076;-77
2022/09/13 08:28:09;;;;;;;32.35;19.08;;;;;;;21.05;73.66;100970.03;4872967;29;20036;-77
2022/09/13 08:30:36;;;;;;;26.75;18.98;;;;;;;21.22;73.89;100973.47;4858384;29;20060;-77
2022/09/13 08:33:05;;;;;;;30.00;19.30;;;;;;;21.36;73.61;100970.72;4872834;29;20338;-77
2022/09/13 08:35:32;;;;;;;29.30;19.23;;;;;;;21.49;73.31;100970.84;4859535;29;20045;-77
2022/09/13 08:37:58;;;;;;;27.25;19.08;;;;;;;21.66;72.91;100981.38;4872249;29;20093;-77
2022/09/13 08:40:27;;;;;;;25.10;18.58;;;;;;;21.76;71.76;100976.25;4871477;29;20031;-77
2022/09/13 08:43:24;;;;;;;25.92;18.42;;;;;;;21.84;71.13;100978.44;4858514;29;20037;-77
2022/09/13 08:45:54;;;;;;;27.05;17.67;;;;;;;21.90;70.63;100981.56;4868092;29;20029;-77
2022/09/13 08:48:25;;;;;;;21.88;15.38;;;;;;;21.95;69.22;100977.69;4877119;29;20481;-77
2022/09/13 08:50:57;;;;;;;23.10;16.67;;;;;;;22.00;68.65;100980.94;4864764;29;20041;-77
2022/09/13 08:53:28;;;;;;;24.75;16.95;;;;;;;22.04;69.85;100982.47;4878085;29;20553;-77
2022/09/13 08:56:09;;;;;;;23.75;16.95;;;;;;;22.19;70.21;100981.41;4859157;29;20116;-77
2022/09/13 08:58:45;;;;;;;26.40;15.48;;;;;;;22.18;69.06;100974.31;4869776;29;20394;-77
2022/09/13 09:01:49;;;;;;;22.38;15.15;;;;;;;22.38;69.33;100980.19;4860886;29;20086;-77
2022/09/13 09:04:27;;;;;;;19.70;14.40;;;;;;;22.59;69.03;100980.53;4875225;29;20414;-76
2022/09/13 09:07:19;;;;;;;24.17;15.93;;;;;;;22.72;68.74;100965.19;4878078;29;20041;-76
2022/09/13 09:09:58;;;;;;;22.23;16.00;;;;;;;22.85;68.42;100968.75;4867012;29;20240;-76
2022/09/13 09:12:48;;;;;;;27.33;16.90;;;;;;;22.95;67.21;100968.97;4872760;29;20125;-76
2022/09/13 09:15:35;;;;;;;27.17;17.35;;;;;;;22.96;67.24;100963.44;4877503;29;20033;-77
2022/09/13 09:18:23;;;;;;;24.65;15.68;;;;;;;23.07;67.18;100957.31;4858602;29;20051;-77
2022/09/13 09:20:52;;;;;;;23.92;13.98;;;;;;;23.15;65.83;100951.34;4853311;29;20363;-77
2022/09/13 09:23:20;;;;;;;19.02;9.00;;;;;;;23.24;65.45;100953.34;4855423;29;20052;-77
2022/09/13 09:25:46;;;;;;;16.55;7.10;;;;;;;23.33;64.81;100955.38;4864831;29;20072;-77
2022/09/13 09:28:15;;;;;;;13.10;9.10;;;;;;;23.40;64.83;100948.56;4876423;29;20049;-77
2022/09/13 09:31:03;;;;;;;16.25;10.95;;;;;;;23.51;65.64;100949.59;4876210;29;20040;-77
2022/09/13 09:33:50;;;;;;;15.30;10.07;;;;;;;23.66;65.85;100961.97;4872092;29;20034;-77
2022/09/13 09:36:40;;;;;;;19.65;10.93;;;;;;;23.71;65.06;100961.63;4859938;29;20411;-77
2022/09/13 09:39:11;;;;;;;19.38;12.98;;;;;;;23.65;63.84;100959.38;4867925;29;20033;-77
2022/09/13 09:41:37;;;;;;;18.02;12.20;;;;;;;23.59;64.19;100961.56;4874849;29;20418;-77
2022/09/13 09:44:21;;;;;;;17.88;12.52;;;;;;;23.54;65.52;100965.56;4858397;29;20889;-77
2022/09/13 09:46:55;;;;;;;21.23;13.98;;;;;;;23.50;65.43;100961.41;4859291;29;20045;-77
2022/09/13 09:52:33;;;;;;;15.85;11.80;;;;;;;23.47;64.48;100962.47;4859785;29;20382;-77
2022/09/13 09:55:10;;;;;;;18.27;12.07;;;;;;;23.43;64.61;100971.78;4857478;29;20047;-77
2022/09/13 09:57:53;;;;;;;17.48;11.73;;;;;;;23.56;65.19;100958.22;4870800;29;20073;-77
2022/09/13 10:00:22;;;;;;;13.77;9.60;;;;;;;23.69;64.66;100956.34;4870734;29;20473;-77
2022/09/13 10:02:50;;;;;;;13.98;9.35;;;;;;;23.82;64.80;100959.88;4859418;29;20478;-77
2022/09/13 10:05:22;;;;;;;13.98;10.07;;;;;;;23.93;64.11;100956.34;4857465;29;20045;-77
2022/09/13 10:07:53;;;;;;;12.52;8.07;;;;;;;23.96;64.96;100956.13;4857778;29;20041;-77
2022/09/13 10:10:33;;;;;;;9.75;7.18;;;;;;;23.93;63.88;100953.63;4858647;29;20041;-77
2022/09/13 10:12:59;;;;;;;10.32;6.65;;;;;;;23.90;64.20;100953.88;4870546;29;20034;-77
2022/09/13 10:15:31;;;;;;;8.63;5.70;;;;;;;23.98;64.89;100953.28;4867897;29;20047;-77
2022/09/13 10:18:15;;;;;;;14.65;6.55;;;;;;;24.08;64.95;100948.88;4861282;29;20033;-77
2022/09/13 10:20:42;;;;;;;11.10;6.80;;;;;;;24.19;63.87;100943.53;4853614;29;20132;-77
2022/09/13 10:23:15;;;;;;;8.90;5.22;;;;;;;24.25;65.30;100943.03;4865190;29;20450;-77
2022/09/13 10:25:54;;;;;;;12.15;5.70;;;;;;;24.28;62.55;100941.06;4869549;29;20077;-77
2022/09/13 10:28:20;;;;;;;10.18;4.88;;;;;;;24.26;61.90;100938.50;4875238;29;20030;-77
2022/09/13 10:30:55;;;;;;;9.13;3.72;;;;;;;24.30;62.61;100939.13;4862026;29;20060;-77
2022/09/13 10:33:32;;;;;;;8.95;3.83;;;;;;;24.30;62.67;100936.41;4866420;29;20060;-77
2022/09/13 10:36:12;;;;;;;9.25;4.47;;;;;;;24.67;62.71;100946.09;4878744;29;20076;-77
2022/09/13 10:38:40;;;;;;;8.35;4.82;;;;;;;25.16;61.27;100935.00;4849263;29;20235;-77
2022/09/13 10:41:10;;;;;;;10.38;4.82;;;;;;;25.56;61.32;100939.84;4869848;29;20493;-77
2022/09/13 10:43:36;;;;;;;9.10;5.07;;;;;;;25.94;60.06;100928.53;4864621;29;20220;-77
2022/09/13 10:46:05;;;;;;;12.02;4.63;;;;;;;26.22;60.42;100926.16;4863774;29;20053;-77
2022/09/13 10:48:45;;;;;;;9.88;4.63;;;;;;;26.20;57.91;100930.84;4865938;29;20034;-77
2022/09/13 10:51:31;;;;;;;10.68;5.75;;;;;;;25.97;58.76;100932.84;4864131;29;20077;-77
2022/09/13 10:54:19;;;;;;;8.38;4.95;;;;;;;25.63;58.09;100938.34;4873774;29;20048;-77
2022/09/13 10:56:46;;;;;;;10.13;4.78;;;;;;;25.24;59.07;100941.53;4867835;29;20037;-77
2022/09/13 10:59:20;;;;;;;9.13;5.00;;;;;;;25.06;58.94;100946.56;4861733;29;20030;-77
2022/09/13 11:02:10;;;;;;;8.38;4.43;;;;;;;25.02;59.80;100938.81;4875665;29;20053;-77
2022/09/13 11:05:00;;;;;;;9.30;4.72;;;;;;;25.12;60.57;100945.22;4853573;29;20065;-77
2022/09/13 11:07:39;;;;;;;8.52;4.75;;;;;;;25.11;59.90;100933.50;4850290;29;20151;-77
2022/09/13 11:10:42;;;;;;;10.88;5.05;;;;;;;25.02;58.42;100926.13;4861091;29;20051;-77
2022/09/13 11:13:20;;;;;;;11.38;4.35;;;;;;;25.02;60.59;100922.56;4832311;29;20404;-77
2022/09/13 11:16:02;;;;;;;10.48;5.40;;;;;;;24.87;59.20;100913.84;4873834;29;20041;-77
2022/09/13 11:18:55;;;;;;;7.93;5.70;;;;;;;24.87;59.83;100916.53;4860370;29;20037;-77
2022/09/13 11:22:15;;;;;;;7.95;5.57;;;;;;;24.97;59.84;100912.09;4874209;29;20072;-77
2022/09/13 11:24:59;;;;;;;9.65;5.18;;;;;;;25.08;60.90;100913.94;4841862;29;20064;-77
2022/09/13 11:27:37;;;;;;;7.80;4.65;;;;;;;25.19;60.13;100902.25;4878355;29;20430;-77
2022/09/13 11:30:11;;;;;;;8.00;4.00;;;;;;;25.29;59.52;100912.19;4860723;29;20551;-77
2022/09/13 11:32:56;;;;;;;14.25;4.32;;;;;;;25.37;59.56;100910.69;4871816;29;20052;-77
2022/09/13 11:35:49;;;;;;;12.88;5.10;;;;;;;25.49;60.20;100904.25;4850928;29;20375;-77
2022/09/13 11:38:14;;;;;;;9.52;5.57;;;;;;;25.59;59.08;100901.63;4877907;29;20486;-77
2022/09/13 11:40:58;;;;;;;8.93;5.72;;;;;;;25.77;59.91;100902.81;4879092;29;20068;-77
2022/09/13 11:43:33;;;;;;;8.80;6.05;;;;;;;25.99;59.51;100909.13;4865194;29;20045;-77